createdAt,value
2019-03-26T18:08:08.664Z,6.17
2019-03-26T18:10:41.054Z,6.30
2019-03-26T18:13:13.451Z,7.50
2019-03-26T18:15:46.101Z,7.17
2019-03-26T18:18:19.732Z,6.93
2019-03-26T18:20:52.390Z,7.37
2019-03-26T18:23:24.894Z,5.80
2019-03-26T18:25:57.279Z,7.57
2019-03-26T18:28:29.738Z,7.73
2019-03-26T18:31:02.210Z,8.07
2019-03-26T18:33:34.744Z,7.87
2019-03-26T18:36:07.067Z,7.80
2019-03-26T18:38:39.429Z,7.97
2019-03-26T18:41:12.008Z,7.23
2019-03-26T18:43:44.493Z,7.13
2019-03-26T18:46:17.100Z,8.70
2019-03-26T18:48:51.463Z,6.87
2019-03-26T18:51:24.186Z,8.07
2019-03-26T18:53:56.743Z,9.33
2019-03-26T18:56:29.204Z,8.33
2019-03-26T18:59:01.874Z,8.13
2019-03-26T19:01:34.372Z,8.10
2019-03-26T19:04:07.043Z,8.47
2019-03-26T19:06:39.496Z,8.20
2019-03-26T19:09:11.880Z,9.60
2019-03-26T19:11:44.521Z,7.73
2019-03-26T19:14:16.829Z,7.40
2019-03-26T19:16:49.086Z,10.07
2019-03-26T19:19:22.902Z,8.60
2019-03-26T19:21:55.280Z,8.70
2019-03-26T19:24:27.623Z,8.60
2019-03-26T19:27:00.664Z,9.13
2019-03-26T19:29:33.297Z,9.77
2019-03-26T19:32:05.739Z,8.60
2019-03-26T19:34:38.396Z,9.73
2019-03-26T19:37:11.425Z,9.43
2019-03-26T19:39:43.808Z,9.10
2019-03-26T19:42:15.916Z,8.60
2019-03-26T19:44:48.497Z,9.00
2019-03-26T19:47:20.871Z,8.83
2019-03-26T19:49:53.217Z,8.57
2019-03-26T19:52:25.615Z,7.60
2019-03-26T19:55:00.770Z,8.23
2019-03-26T19:57:31.988Z,8.80
2019-03-26T20:00:04.373Z,8.73
2019-03-26T20:02:36.908Z,9.73
2019-03-26T20:05:10.478Z,8.83
2019-03-26T20:07:42.882Z,9.07
2019-03-26T20:10:15.527Z,8.40
2019-03-26T20:12:47.982Z,8.80
2019-03-26T20:15:20.209Z,9.47
2019-03-26T20:17:52.249Z,8.80
2019-03-26T20:20:24.511Z,10.87
2019-03-26T20:22:56.809Z,9.77
2019-03-26T20:25:29.106Z,9.13
2019-03-26T20:28:01.284Z,9.33
2019-03-26T20:30:33.592Z,8.90
2019-03-26T20:33:06.120Z,9.63
2019-03-26T20:35:38.465Z,8.67
2019-03-26T20:38:11.366Z,8.50
2019-03-26T20:40:43.543Z,7.60
2019-03-26T20:43:16.429Z,10.70
2019-03-26T20:45:49.000Z,8.30
2019-03-26T20:48:21.602Z,8.80
2019-03-26T20:50:57.079Z,8.53
2019-03-26T20:53:28.072Z,7.97
2019-03-26T20:56:00.423Z,9.30
2019-03-26T20:58:32.535Z,10.60
2019-03-26T21:01:04.872Z,7.93
2019-03-26T21:03:37.225Z,10.03
2019-03-26T21:06:09.546Z,8.10
2019-03-26T21:08:42.051Z,8.53
2019-03-26T21:11:14.574Z,8.57
2019-03-26T21:13:51.001Z,9.00
2019-03-26T21:16:21.145Z,8.80
2019-03-26T21:18:53.416Z,8.03
2019-03-26T21:21:25.665Z,9.10
2019-03-26T21:23:59.039Z,10.17
2019-03-26T21:26:31.322Z,9.13
2019-03-26T21:29:03.629Z,8.30
2019-03-26T21:31:35.906Z,8.47
2019-03-26T21:34:08.129Z,8.17
2019-03-26T21:36:40.512Z,8.47
2019-03-26T21:39:12.777Z,8.13
2019-03-26T21:41:45.289Z,8.97
2019-03-26T21:44:17.522Z,7.97
2019-03-26T21:46:49.820Z,8.27
2019-03-26T21:49:22.181Z,8.40
2019-03-26T21:51:54.273Z,8.70
2019-03-26T21:54:27.102Z,7.83
2019-03-26T21:56:59.534Z,8.00
2019-03-26T21:59:32.019Z,7.60
2019-03-26T22:02:04.336Z,8.57
2019-03-26T22:04:36.603Z,7.30
2019-03-26T22:07:09.497Z,6.67
2019-03-26T22:09:41.834Z,7.10
2019-03-26T22:12:14.238Z,6.90
2019-03-26T22:14:46.778Z,6.50
2019-03-26T22:17:19.134Z,7.00
2019-03-26T22:19:52.062Z,7.30
2019-03-26T22:22:24.680Z,7.20
2019-03-26T22:24:57.270Z,7.03
2019-03-26T22:27:29.848Z,6.97
2019-03-26T22:30:02.447Z,6.60
2019-03-26T22:32:35.227Z,6.00
2019-03-26T22:35:07.918Z,5.97
2019-03-26T22:37:40.302Z,6.77
2019-03-26T22:40:13.054Z,5.87
2019-03-26T22:42:45.217Z,7.03
2019-03-26T22:45:19.561Z,6.60
2019-03-26T22:47:51.842Z,5.93
2019-03-26T22:50:24.317Z,6.47
2019-03-26T22:52:56.763Z,6.47
2019-03-26T22:55:29.115Z,5.83
2019-03-26T22:58:01.421Z,6.47
2019-03-26T23:00:33.699Z,6.73
2019-03-26T23:03:07.627Z,6.23
2019-03-26T23:05:41.011Z,6.97
2019-03-26T23:08:13.442Z,5.27
2019-03-26T23:10:45.901Z,7.07
2019-03-26T23:13:18.261Z,6.13
2019-03-26T23:15:50.992Z,6.87
2019-03-26T23:18:23.280Z,6.10
2019-03-26T23:20:55.949Z,6.23
2019-03-26T23:23:28.279Z,6.13
2019-03-26T23:26:00.762Z,5.53
2019-03-26T23:28:32.988Z,6.53
2019-03-26T23:31:05.561Z,6.67
2019-03-26T23:33:37.892Z,6.47
2019-03-26T23:36:12.100Z,5.40
2019-03-26T23:38:44.453Z,5.73
2019-03-26T23:41:16.799Z,6.50
2019-03-26T23:43:49.151Z,6.57
2019-03-26T23:46:21.529Z,5.37
2019-03-26T23:48:53.940Z,6.30
2019-03-26T23:51:26.163Z,6.77
2019-03-26T23:53:58.404Z,5.53
2019-03-26T23:56:30.646Z,5.53
2019-03-26T23:59:03.179Z,6.33
